createdAt,value
2023-12-11T00:00:40.203Z,24.30
2023-12-11T00:03:28.636Z,26.50
2023-12-11T00:05:57.082Z,30.40
2023-12-11T00:08:25.648Z,30.50
2023-12-11T00:10:53.866Z,33.80
2023-12-11T00:13:22.670Z,35.50
2023-12-11T00:15:50.963Z,38.40
2023-12-11T00:18:19.228Z,35.30
2023-12-11T00:20:47.544Z,36.60
2023-12-11T00:23:15.669Z,33.20
2023-12-11T00:25:48.225Z,31.60
2023-12-11T00:28:16.473Z,30.70
2023-12-11T00:30:45.089Z,30.10
2023-12-11T00:33:13.386Z,32.50
2023-12-11T00:35:41.861Z,30.20
2023-12-11T00:38:10.261Z,31.70
2023-12-11T00:40:38.460Z,31.30
2023-12-11T00:43:06.741Z,29.40
2023-12-11T00:45:34.991Z,30.10
2023-12-11T00:48:03.332Z,33.10
2023-12-11T00:50:31.683Z,31.50
2023-12-11T00:52:59.859Z,30.50
2023-12-11T00:55:28.125Z,31.80
2023-12-11T00:57:56.352Z,30.00
2023-12-11T01:00:24.501Z,33.60
2023-12-11T01:02:52.643Z,30.70
2023-12-11T01:05:20.814Z,29.40
2023-12-11T01:07:49.234Z,30.00
2023-12-11T01:10:17.718Z,30.90
2023-12-11T01:12:45.926Z,28.90
2023-12-11T01:15:14.138Z,30.30
2023-12-11T01:17:44.964Z,32.10
2023-12-11T01:20:13.478Z,32.30
2023-12-11T01:22:42.700Z,33.60
2023-12-11T01:25:11.066Z,30.30
2023-12-11T01:27:39.412Z,34.00
2023-12-11T01:30:08.465Z,31.20
2023-12-11T01:32:36.735Z,32.40
2023-12-11T01:35:05.159Z,27.30
2023-12-11T01:37:33.305Z,29.40
2023-12-11T01:40:01.619Z,29.00
2023-12-11T01:42:29.808Z,30.40
2023-12-11T01:44:57.941Z,31.40
2023-12-11T01:47:26.104Z,32.90
2023-12-11T01:49:54.406Z,29.40
2023-12-11T01:52:23.743Z,37.60
2023-12-11T01:54:52.898Z,38.80
2023-12-11T01:57:21.328Z,34.00
2023-12-11T01:59:49.711Z,33.50
2023-12-11T02:02:21.411Z,29.40
2023-12-11T02:04:55.296Z,26.20
2023-12-11T02:07:23.754Z,27.80
2023-12-11T02:09:52.112Z,37.30
2023-12-11T02:12:20.360Z,37.70
2023-12-11T02:14:48.721Z,38.20
2023-12-11T02:17:17.214Z,39.00
2023-12-11T02:19:45.446Z,32.10
2023-12-11T02:22:14.699Z,35.50
2023-12-11T02:24:59.485Z,31.50
2023-12-11T02:27:28.418Z,30.40
2023-12-11T02:29:57.374Z,32.30
2023-12-11T02:32:25.508Z,30.90
2023-12-11T02:34:53.804Z,30.20
2023-12-11T02:37:21.965Z,36.20
2023-12-11T02:39:50.230Z,47.20
2023-12-11T02:42:18.428Z,38.20
2023-12-11T02:44:46.636Z,31.50
2023-12-11T02:47:14.747Z,37.40
2023-12-11T02:49:43.074Z,36.50
2023-12-11T02:52:11.486Z,40.60
2023-12-11T02:54:39.997Z,40.80
2023-12-11T02:57:08.144Z,26.60
2023-12-11T02:59:36.372Z,22.80
2023-12-11T03:02:04.694Z,32.60
2023-12-11T03:04:33.094Z,46.20
2023-12-11T03:07:01.500Z,40.50
2023-12-11T03:09:29.667Z,37.90
2023-12-11T03:11:57.859Z,35.50
2023-12-11T03:14:26.016Z,32.10
2023-12-11T03:16:54.204Z,36.30
2023-12-11T03:19:22.368Z,31.30
2023-12-11T03:21:50.792Z,42.80
2023-12-11T03:24:18.975Z,38.30
2023-12-11T03:26:47.087Z,35.50
2023-12-11T03:29:15.219Z,30.60
2023-12-11T03:31:43.421Z,29.20
2023-12-11T03:34:11.629Z,24.00
2023-12-11T03:36:39.932Z,27.20
2023-12-11T03:39:09.001Z,25.20
2023-12-11T03:41:40.086Z,29.80
2023-12-11T03:44:08.364Z,28.00
2023-12-11T03:46:36.636Z,29.90
2023-12-11T03:49:05.116Z,31.60
2023-12-11T03:51:33.418Z,29.70
2023-12-11T03:54:02.176Z,29.80
2023-12-11T03:56:30.371Z,34.00
2023-12-11T03:58:58.632Z,29.60
2023-12-11T04:01:26.869Z,46.10
2023-12-11T04:03:55.759Z,47.20
2023-12-11T04:06:24.041Z,41.10
2023-12-11T04:08:52.400Z,31.60
2023-12-11T04:11:20.615Z,32.20
2023-12-11T04:13:48.815Z,34.80
2023-12-11T04:16:17.017Z,31.30
2023-12-11T04:18:45.199Z,30.90
2023-12-11T04:21:13.679Z,66.90
2023-12-11T04:23:41.826Z,48.40
2023-12-11T04:26:10.089Z,45.80
2023-12-11T04:28:38.263Z,37.30
2023-12-11T04:31:06.695Z,40.90
2023-12-11T04:33:39.291Z,42.20
2023-12-11T04:36:09.954Z,37.40
2023-12-11T04:38:38.185Z,56.80
2023-12-11T04:41:06.598Z,47.10
2023-12-11T04:43:34.842Z,72.80
2023-12-11T04:46:03.255Z,55.80
2023-12-11T04:48:32.153Z,55.80
2023-12-11T04:51:00.453Z,70.30
2023-12-11T04:53:28.528Z,89.80
2023-12-11T04:55:56.740Z,71.00
2023-12-11T04:58:25.032Z,51.00
2023-12-11T05:00:53.340Z,53.50
2023-12-11T05:03:21.537Z,50.40
2023-12-11T05:05:49.872Z,50.80
2023-12-11T05:08:18.053Z,47.20
2023-12-11T05:10:46.332Z,39.40
2023-12-11T05:13:14.489Z,50.60
2023-12-11T05:15:42.759Z,56.30
2023-12-11T05:18:11.497Z,55.60
2023-12-11T05:20:39.741Z,55.20
2023-12-11T05:23:08.098Z,51.30
2023-12-11T05:25:36.317Z,54.00
2023-12-11T05:28:04.593Z,47.50
2023-12-11T05:30:33.060Z,47.90
2023-12-11T05:33:01.421Z,39.80
2023-12-11T05:35:29.798Z,42.90
2023-12-11T05:37:59.893Z,42.30
2023-12-11T05:40:28.382Z,41.10
2023-12-11T05:42:56.753Z,42.70
2023-12-11T05:45:24.868Z,41.60
2023-12-11T05:47:53.184Z,37.60
2023-12-11T05:50:21.654Z,40.40
2023-12-11T05:52:49.816Z,36.90
2023-12-11T05:55:18.156Z,35.40
2023-12-11T05:57:48.713Z,32.90
2023-12-11T06:00:17.991Z,32.30
2023-12-11T06:02:46.124Z,25.50
2023-12-11T06:05:14.623Z,29.00
2023-12-11T06:07:43.238Z,32.10
2023-12-11T06:10:11.466Z,33.20
2023-12-11T06:12:39.753Z,53.70
2023-12-11T06:15:08.710Z,58.00
2023-12-11T06:17:37.156Z,35.10
2023-12-11T06:20:06.688Z,57.80
2023-12-11T06:22:34.869Z,55.50
2023-12-11T06:25:04.459Z,54.90
2023-12-11T06:27:32.901Z,46.50
2023-12-11T06:30:01.350Z,52.40
2023-12-11T06:32:29.830Z,46.00
2023-12-11T06:34:58.258Z,44.30
2023-12-11T06:37:26.741Z,43.40
2023-12-11T06:39:55.288Z,44.90
2023-12-11T06:42:23.685Z,43.70
2023-12-11T06:44:51.744Z,38.10
2023-12-11T06:47:19.865Z,42.20
2023-12-11T06:49:48.391Z,35.50
2023-12-11T06:52:17.234Z,38.30
2023-12-11T06:54:45.653Z,50.40
2023-12-11T06:57:14.854Z,57.10
2023-12-11T06:59:43.012Z,47.10
2023-12-11T07:02:11.832Z,45.50
2023-12-11T07:04:43.494Z,49.10
2023-12-11T07:07:11.902Z,53.10
2023-12-11T07:09:40.161Z,57.30
2023-12-11T07:12:09.382Z,50.60
2023-12-11T07:14:37.560Z,49.30
2023-12-11T07:17:05.765Z,51.70
2023-12-11T07:19:33.977Z,46.90
2023-12-11T07:22:02.205Z,31.80
2023-12-11T07:24:30.398Z,56.00
2023-12-11T07:26:58.911Z,28.30
2023-12-11T07:29:27.305Z,25.70
2023-12-11T07:31:55.492Z,22.80
2023-12-11T07:34:23.789Z,20.30
2023-12-11T07:36:52.993Z,29.80
2023-12-11T07:39:22.026Z,25.90
2023-12-11T07:41:50.216Z,26.60
2023-12-11T07:44:19.273Z,33.60
2023-12-11T07:46:47.280Z,24.00
2023-12-11T07:49:15.672Z,22.30
2023-12-11T07:51:44.688Z,21.70
2023-12-11T07:54:13.415Z,23.50
2023-12-11T07:56:42.172Z,17.70
2023-12-11T07:59:12.157Z,17.30
2023-12-11T08:01:40.685Z,16.80
2023-12-11T08:04:09.504Z,26.00
2023-12-11T08:06:44.143Z,29.30
2023-12-11T08:09:12.777Z,28.40
2023-12-11T08:11:41.157Z,24.90
2023-12-11T08:14:09.370Z,40.50
2023-12-11T08:16:37.509Z,58.40
2023-12-11T08:19:05.939Z,33.80
2023-12-11T08:21:34.171Z,46.90
2023-12-11T08:24:02.442Z,37.60
2023-12-11T08:26:30.682Z,40.00
2023-12-11T08:29:00.669Z,26.80
2023-12-11T08:31:29.341Z,17.50
2023-12-11T08:33:57.949Z,16.80
2023-12-11T08:36:26.302Z,20.80
2023-12-11T08:38:54.821Z,20.70
2023-12-11T08:41:23.027Z,19.90
2023-12-11T08:43:51.200Z,18.10
2023-12-11T08:46:19.423Z,17.40
2023-12-11T08:48:47.680Z,21.60
2023-12-11T08:51:20.266Z,20.30
2023-12-11T08:53:48.380Z,15.50
2023-12-11T08:56:19.793Z,16.50
2023-12-11T08:58:48.374Z,19.20
2023-12-11T09:01:16.807Z,17.20
2023-12-11T09:03:45.802Z,52.00
2023-12-11T09:06:16.910Z,28.10
2023-12-11T09:08:45.301Z,21.90
2023-12-11T09:11:13.524Z,18.30
2023-12-11T09:13:42.439Z,19.90
2023-12-11T09:16:10.860Z,16.70
2023-12-11T09:18:39.398Z,18.50
2023-12-11T09:21:07.720Z,15.40
2023-12-11T09:23:36.144Z,17.10
2023-12-11T09:26:04.468Z,15.20
2023-12-11T09:28:37.939Z,19.50
2023-12-11T09:31:12.885Z,17.90
2023-12-11T09:33:41.929Z,17.00
2023-12-11T09:36:10.850Z,19.10
2023-12-11T09:38:39.052Z,18.40
2023-12-11T09:41:08.722Z,20.80
2023-12-11T09:43:37.641Z,20.40
2023-12-11T09:46:13.550Z,20.90
2023-12-11T09:48:42.435Z,26.60
2023-12-11T09:51:13.655Z,19.30
2023-12-11T09:53:42.724Z,22.80
2023-12-11T09:56:14.216Z,30.80
2023-12-11T09:58:44.723Z,30.00
2023-12-11T10:01:14.608Z,29.10
2023-12-11T10:03:42.995Z,26.10
2023-12-11T10:06:11.349Z,30.80
2023-12-11T10:08:53.749Z,24.50
2023-12-11T10:11:23.699Z,31.40
2023-12-11T10:13:52.100Z,31.10
2023-12-11T10:16:36.875Z,27.30
2023-12-11T10:19:05.331Z,30.90
2023-12-11T10:21:42.011Z,30.20
2023-12-11T10:24:16.249Z,31.00
2023-12-11T10:26:54.278Z,27.00
2023-12-11T10:29:24.892Z,31.30
2023-12-11T10:32:00.485Z,27.80
2023-12-11T10:34:47.747Z,28.20
2023-12-11T10:37:16.356Z,27.30
2023-12-11T10:39:57.890Z,23.30
2023-12-11T10:42:26.830Z,25.70
2023-12-11T10:44:56.970Z,25.30
2023-12-11T10:47:25.898Z,29.00
2023-12-11T10:49:54.265Z,24.30
2023-12-11T10:52:22.398Z,23.80
2023-12-11T10:54:50.719Z,26.30
2023-12-11T10:57:21.186Z,24.90
2023-12-11T10:59:52.157Z,25.80
2023-12-11T11:02:23.472Z,28.30
2023-12-11T11:04:52.375Z,28.40
2023-12-11T11:07:29.777Z,28.00
2023-12-11T11:10:21.553Z,26.20
2023-12-11T11:12:59.682Z,22.30
2023-12-11T11:15:28.863Z,28.70
2023-12-11T11:17:57.732Z,31.00
2023-12-11T11:20:36.894Z,21.40
2023-12-11T11:23:18.063Z,23.90
2023-12-11T11:25:54.368Z,19.70
2023-12-11T11:28:44.341Z,20.60
2023-12-11T11:31:23.148Z,21.60
2023-12-11T11:33:57.879Z,20.40
2023-12-11T11:36:46.534Z,18.00
2023-12-11T11:39:15.515Z,18.20
2023-12-11T11:41:45.464Z,17.80
2023-12-11T11:44:16.014Z,19.50
2023-12-11T11:46:57.294Z,17.70
2023-12-11T11:49:36.807Z,20.00
2023-12-11T11:52:06.807Z,16.30
2023-12-11T11:54:40.208Z,21.10
2023-12-11T11:57:08.732Z,21.40
2023-12-11T11:59:46.471Z,21.10
2023-12-11T12:02:23.573Z,23.60
2023-12-11T12:04:52.137Z,27.10
2023-12-11T12:07:20.980Z,24.80
2023-12-11T12:09:55.378Z,21.00
2023-12-11T12:12:23.589Z,25.70
2023-12-11T12:15:03.424Z,27.20
2023-12-11T12:17:32.668Z,30.50
2023-12-11T12:20:19.021Z,31.40
2023-12-11T12:23:01.012Z,27.00
2023-12-11T12:25:30.852Z,31.40
2023-12-11T12:28:19.698Z,37.10
2023-12-11T12:30:48.061Z,35.00
2023-12-11T12:33:19.864Z,35.00
2023-12-11T12:35:50.167Z,34.50
2023-12-11T12:38:19.595Z,31.90
2023-12-11T12:40:47.890Z,37.20
2023-12-11T12:43:16.110Z,37.70
2023-12-11T12:45:45.097Z,32.30
2023-12-11T12:48:14.734Z,33.40
2023-12-11T12:50:43.013Z,38.80
2023-12-11T12:53:14.827Z,32.60
2023-12-11T12:55:43.351Z,34.80
2023-12-11T12:58:15.429Z,40.40
2023-12-11T13:00:45.906Z,35.40
2023-12-11T13:03:14.493Z,39.20
2023-12-11T13:05:45.419Z,36.80
2023-12-11T13:08:17.674Z,53.40
2023-12-11T13:10:57.404Z,46.40
2023-12-11T13:13:28.415Z,54.70
2023-12-11T13:15:57.824Z,52.50
2023-12-11T13:18:26.532Z,39.50
2023-12-11T13:20:54.995Z,36.70
2023-12-11T13:23:25.216Z,37.50
2023-12-11T13:25:53.408Z,42.80
2023-12-11T13:28:21.697Z,43.60
2023-12-11T13:30:49.980Z,51.00
2023-12-11T13:33:18.876Z,65.30
2023-12-11T13:35:47.092Z,60.40
2023-12-11T13:38:15.196Z,71.60
2023-12-11T13:40:43.475Z,44.30
2023-12-11T13:43:12.882Z,44.00
2023-12-11T13:45:41.347Z,51.30
2023-12-11T13:48:09.744Z,36.00
2023-12-11T13:50:38.130Z,34.50
2023-12-11T13:53:06.266Z,33.30
2023-12-11T13:55:34.489Z,32.50
2023-12-11T13:58:02.815Z,27.50
2023-12-11T14:00:30.981Z,29.00
2023-12-11T14:03:03.739Z,31.70
2023-12-11T14:05:34.726Z,31.60
2023-12-11T14:08:04.322Z,33.40
2023-12-11T14:10:34.889Z,34.20
2023-12-11T14:13:03.678Z,31.70
2023-12-11T14:15:32.196Z,33.30
2023-12-11T14:18:00.567Z,30.30
2023-12-11T14:20:28.813Z,37.80
2023-12-11T14:22:57.035Z,34.30
2023-12-11T14:25:27.471Z,36.70
2023-12-11T14:27:55.881Z,35.60
2023-12-11T14:30:24.059Z,31.80
2023-12-11T14:32:52.327Z,59.20
2023-12-11T14:35:20.786Z,38.20
2023-12-11T14:37:48.963Z,36.00
2023-12-11T14:40:17.232Z,35.20
2023-12-11T14:42:45.425Z,35.10
2023-12-11T14:45:13.640Z,34.50
2023-12-11T14:47:41.759Z,33.70
2023-12-11T14:50:10.409Z,34.30
2023-12-11T14:52:38.765Z,36.50
2023-12-11T14:55:08.513Z,35.90
2023-12-11T14:57:38.068Z,39.30
2023-12-11T15:00:07.443Z,33.80
2023-12-11T15:02:35.607Z,42.40
2023-12-11T15:05:04.065Z,40.90
2023-12-11T15:07:32.599Z,37.60
2023-12-11T15:10:01.180Z,42.70
2023-12-11T15:12:29.294Z,45.80
2023-12-11T15:14:57.792Z,47.50
2023-12-11T15:17:26.205Z,39.10
2023-12-11T15:19:54.661Z,44.60
2023-12-11T15:22:22.860Z,30.20
2023-12-11T15:24:51.565Z,32.60
2023-12-11T15:27:20.274Z,36.10
2023-12-11T15:29:48.566Z,38.90
2023-12-11T15:32:17.153Z,85.60
2023-12-11T15:34:45.317Z,55.10
2023-12-11T15:37:13.597Z,61.30
2023-12-11T15:39:41.934Z,87.10
2023-12-11T15:42:10.523Z,36.10
2023-12-11T15:44:38.760Z,77.50
2023-12-11T15:47:08.315Z,130.60
2023-12-11T15:49:37.785Z,116.30
2023-12-11T15:52:07.684Z,130.30
2023-12-11T15:54:37.302Z,163.90
2023-12-11T15:57:05.740Z,128.70
2023-12-11T15:59:33.960Z,119.40
2023-12-11T16:02:02.115Z,151.60
2023-12-11T16:04:30.377Z,142.90
2023-12-11T16:06:58.722Z,149.90
2023-12-11T16:09:27.057Z,139.90
2023-12-11T16:11:55.222Z,222.90
2023-12-11T16:14:23.392Z,186.70
2023-12-11T16:16:51.582Z,168.00
2023-12-11T16:19:20.609Z,254.10
2023-12-11T16:21:49.366Z,141.00
2023-12-11T16:24:17.803Z,99.20
2023-12-11T16:26:46.961Z,71.30
2023-12-11T16:29:15.151Z,61.00
2023-12-11T16:31:43.374Z,46.80
2023-12-11T16:34:11.750Z,44.00
2023-12-11T16:36:39.992Z,64.50
2023-12-11T16:39:08.334Z,111.20
2023-12-11T16:41:36.781Z,52.90
2023-12-11T16:44:05.609Z,49.90
2023-12-11T16:46:34.174Z,43.60
2023-12-11T16:49:04.263Z,43.90
2023-12-11T16:51:32.673Z,32.50
2023-12-11T16:54:00.765Z,50.50
2023-12-11T16:56:28.845Z,50.30
2023-12-11T16:58:57.067Z,100.60
2023-12-11T17:01:25.546Z,144.10
2023-12-11T17:03:53.968Z,117.20
2023-12-11T17:06:22.983Z,85.80
2023-12-11T17:08:51.388Z,72.00
2023-12-11T17:11:20.241Z,59.80
2023-12-11T17:13:48.430Z,52.00
2023-12-11T17:16:16.589Z,49.50
2023-12-11T17:18:45.100Z,51.10
2023-12-11T17:21:21.978Z,51.00
2023-12-11T17:23:53.949Z,52.50
2023-12-11T17:26:22.875Z,64.70
2023-12-11T17:28:51.935Z,49.00
2023-12-11T17:31:20.259Z,45.30
2023-12-11T17:33:48.707Z,48.90
2023-12-11T17:36:17.031Z,52.20
2023-12-11T17:38:46.215Z,49.00
2023-12-11T17:41:14.337Z,55.00
2023-12-11T17:43:42.500Z,58.80
2023-12-11T17:46:11.035Z,67.30
2023-12-11T17:48:39.656Z,77.70
2023-12-11T17:51:10.137Z,74.60
2023-12-11T17:53:39.635Z,65.20
2023-12-11T17:56:10.742Z,56.50
2023-12-11T17:58:39.701Z,55.80
2023-12-11T18:01:08.941Z,47.40
2023-12-11T18:03:37.270Z,45.70
2023-12-11T18:06:06.823Z,59.40
2023-12-11T18:08:35.027Z,66.20
2023-12-11T18:11:03.172Z,81.20
2023-12-11T18:13:32.067Z,74.10
2023-12-11T18:16:00.296Z,63.70
2023-12-11T18:18:28.661Z,107.20
2023-12-11T18:20:56.818Z,66.40
2023-12-11T18:23:24.957Z,66.30
2023-12-11T18:25:53.184Z,69.80
2023-12-11T18:28:21.425Z,64.70
2023-12-11T18:30:49.722Z,58.40
2023-12-11T18:33:17.860Z,48.10
2023-12-11T18:35:46.210Z,47.20
2023-12-11T18:38:14.455Z,44.30
2023-12-11T18:40:42.659Z,51.50
2023-12-11T18:43:10.902Z,46.90
2023-12-11T18:45:39.261Z,46.00
2023-12-11T18:48:07.413Z,42.90
2023-12-11T18:50:35.645Z,116.40
2023-12-11T18:53:03.661Z,91.80
2023-12-11T18:55:32.973Z,142.90
2023-12-11T18:58:02.285Z,90.60
2023-12-11T19:00:30.793Z,62.60
2023-12-11T19:02:59.171Z,59.20
2023-12-11T19:05:31.122Z,64.90
2023-12-11T19:07:59.206Z,58.20
2023-12-11T19:10:27.394Z,57.80
2023-12-11T19:12:57.034Z,59.00
2023-12-11T19:15:25.331Z,49.60
2023-12-11T19:17:54.074Z,44.60
2023-12-11T19:20:22.867Z,43.80
2023-12-11T19:22:51.009Z,49.30
2023-12-11T19:25:19.244Z,46.80
2023-12-11T19:27:47.530Z,48.80
2023-12-11T19:30:15.759Z,47.50
2023-12-11T19:32:43.933Z,71.80
2023-12-11T19:35:12.747Z,54.00
2023-12-11T19:37:41.019Z,47.50
2023-12-11T19:40:09.857Z,48.60
2023-12-11T19:42:44.517Z,53.90
2023-12-11T19:45:16.685Z,56.40
2023-12-11T19:47:45.966Z,48.90
2023-12-11T19:50:14.352Z,42.00
2023-12-11T19:52:50.828Z,45.20
2023-12-11T19:55:20.400Z,42.90
2023-12-11T19:57:48.736Z,42.30
2023-12-11T20:00:17.659Z,43.10
2023-12-11T20:02:47.699Z,48.50
2023-12-11T20:05:16.301Z,48.50
2023-12-11T20:07:44.778Z,42.20
2023-12-11T20:10:13.191Z,43.90
2023-12-11T20:12:41.302Z,56.20
2023-12-11T20:15:13.014Z,60.20
2023-12-11T20:17:41.831Z,91.80
2023-12-11T20:20:10.707Z,66.70
2023-12-11T20:22:38.902Z,52.10
2023-12-11T20:25:07.306Z,51.30
2023-12-11T20:27:35.903Z,48.20
2023-12-11T20:30:04.436Z,49.50
2023-12-11T20:32:33.774Z,60.70
2023-12-11T20:35:03.182Z,173.90
2023-12-11T20:37:31.898Z,71.90
2023-12-11T20:40:00.556Z,64.50
2023-12-11T20:42:28.886Z,83.40
2023-12-11T20:44:57.196Z,61.30
2023-12-11T20:47:25.804Z,72.00
2023-12-11T20:49:54.293Z,65.90
2023-12-11T20:52:22.623Z,71.70
2023-12-11T20:54:51.023Z,76.70
2023-12-11T20:57:19.239Z,71.10
2023-12-11T20:59:47.522Z,52.10
2023-12-11T21:02:18.230Z,52.70
2023-12-11T21:04:46.323Z,53.20
2023-12-11T21:07:14.657Z,48.70
2023-12-11T21:09:45.269Z,52.40
2023-12-11T21:12:13.608Z,46.60
2023-12-11T21:14:41.757Z,47.10
2023-12-11T21:17:09.823Z,54.90
2023-12-11T21:19:38.071Z,49.40
2023-12-11T21:22:06.465Z,53.40
2023-12-11T21:24:34.672Z,53.20
2023-12-11T21:27:04.085Z,43.10
2023-12-11T21:29:32.321Z,55.20
2023-12-11T21:32:00.743Z,50.80
2023-12-11T21:34:28.978Z,58.30
2023-12-11T21:36:57.403Z,57.60
2023-12-11T21:39:25.649Z,43.40
2023-12-11T21:41:53.998Z,44.20
2023-12-11T21:44:22.136Z,40.60
2023-12-11T21:46:50.406Z,41.10
2023-12-11T21:49:20.730Z,39.70
2023-12-11T21:51:52.095Z,46.30
2023-12-11T21:54:20.335Z,43.90
2023-12-11T21:56:48.506Z,40.90
2023-12-11T21:59:17.164Z,41.80
2023-12-11T22:01:45.320Z,49.60
2023-12-11T22:04:15.341Z,45.50
2023-12-11T22:06:43.711Z,40.00
2023-12-11T22:09:11.957Z,37.30
2023-12-11T22:11:40.161Z,38.90
2023-12-11T22:14:08.246Z,50.00
2023-12-11T22:16:39.679Z,49.30
2023-12-11T22:19:12.257Z,52.40
2023-12-11T22:21:40.596Z,50.90
2023-12-11T22:24:08.706Z,52.30
2023-12-11T22:26:41.437Z,47.50
2023-12-11T22:29:09.952Z,49.10
2023-12-11T22:31:41.839Z,50.10
2023-12-11T22:34:10.105Z,55.30
2023-12-11T22:36:38.660Z,53.90
2023-12-11T22:39:06.937Z,53.10
2023-12-11T22:41:35.264Z,50.50
2023-12-11T22:44:03.419Z,48.90
2023-12-11T22:46:31.900Z,47.70
2023-12-11T22:49:00.149Z,45.80
2023-12-11T22:51:28.349Z,46.50
2023-12-11T22:53:56.501Z,49.70
2023-12-11T22:56:24.724Z,45.50
2023-12-11T22:58:53.785Z,47.30
2023-12-11T23:01:22.158Z,49.20
2023-12-11T23:03:50.399Z,44.70
2023-12-11T23:06:18.712Z,47.90
2023-12-11T23:08:46.837Z,49.60
2023-12-11T23:11:15.338Z,47.00
2023-12-11T23:13:43.490Z,48.80
2023-12-11T23:16:11.522Z,46.80
2023-12-11T23:18:39.714Z,45.80
2023-12-11T23:21:18.054Z,44.80
2023-12-11T23:23:46.897Z,41.20
2023-12-11T23:26:15.189Z,39.40
2023-12-11T23:28:43.290Z,46.70
2023-12-11T23:31:11.691Z,41.80
2023-12-11T23:33:40.117Z,46.90
2023-12-11T23:36:08.719Z,45.00
2023-12-11T23:38:36.975Z,43.60
2023-12-11T23:41:05.841Z,36.80
2023-12-11T23:43:33.982Z,47.10
2023-12-11T23:46:02.353Z,39.90
2023-12-11T23:48:30.600Z,46.30
2023-12-11T23:50:58.876Z,45.10
2023-12-11T23:53:27.025Z,48.50
2023-12-11T23:55:55.265Z,40.50
2023-12-11T23:58:23.592Z,44.30
